Time;durP1;ratioP1;P1;durP2;ratioP2;P2;SDS_P1;SDS_P2;PMS_P1;PMS_P2;Temp;Humidity;BMP_temperature;BMP_pressure;BME280_temperature;BME280_humidity;BME280_pressure;Samples;Min_cycle;Max_cycle;Signal;HPM_P1;HPM_P2
2023/07/31 00:00:05;;;;;;;5.20;2.77;;;;;;;;;;5059987;27;88766;-58
2023/07/31 00:02:34;;;;;;;6.03;3.30;;;;;;;;;;5060159;27;87694;-58
2023/07/31 00:05:03;;;;;;;5.87;3.13;;;;;;;;;;5059505;27;90064;-58
2023/07/31 00:07:31;;;;;;;5.93;3.63;;;;;;;;;;5059100;27;89995;-60
2023/07/31 00:10:02;;;;;;;6.93;3.50;;;;;;;;;;5059714;27;89541;-58
2023/07/31 00:12:33;;;;;;;7.27;3.73;;;;;;;;;;5059892;27;87381;-58
2023/07/31 00:15:02;;;;;;;5.13;3.43;;;;;;;;;;5059384;27;89638;-58
2023/07/31 00:17:31;;;;;;;8.50;3.70;;;;;;;;;;5059138;27;89107;-58
2023/07/31 00:19:59;;;;;;;6.87;3.80;;;;;;;;;;5078502;27;88806;-58
2023/07/31 00:22:28;;;;;;;5.63;4.17;;;;;;;;;;5083200;27;87574;-58
2023/07/31 00:24:57;;;;;;;8.53;4.47;;;;;;;;;;5082696;27;89646;-58
2023/07/31 00:27:27;;;;;;;6.27;3.97;;;;;;;;;;5082512;27;89369;-58
2023/07/31 00:29:56;;;;;;;6.00;4.23;;;;;;;;;;5082677;27;88913;-58
2023/07/31 00:32:24;;;;;;;7.33;4.60;;;;;;;;;;5082498;27;87838;-58
2023/07/31 00:34:53;;;;;;;10.33;4.63;;;;;;;;;;5082613;27;89649;-58
2023/07/31 00:37:21;;;;;;;9.20;5.83;;;;;;;;;;5082548;27;89182;-58
2023/07/31 00:39:50;;;;;;;6.07;4.00;;;;;;;;;;5082595;27;88882;-58
2023/07/31 00:42:18;;;;;;;6.80;4.40;;;;;;;;;;5080833;27;87614;-58
2023/07/31 00:44:48;;;;;;;8.00;3.80;;;;;;;;;;5081927;27;89751;-58
2023/07/31 00:47:17;;;;;;;6.90;4.07;;;;;;;;;;5082462;27;89106;-58
2023/07/31 00:49:45;;;;;;;6.83;4.37;;;;;;;;;;5082464;27;88853;-58
2023/07/31 00:52:14;;;;;;;6.90;4.37;;;;;;;;;;5082362;27;87641;-58
2023/07/31 00:54:43;;;;;;;5.30;3.60;;;;;;;;;;5082373;27;89621;-58
2023/07/31 00:57:11;;;;;;;6.13;4.33;;;;;;;;;;5081756;27;89938;-58
2023/07/31 00:59:40;;;;;;;8.47;4.77;;;;;;;;;;5082158;27;89901;-58
2023/07/31 01:02:10;;;;;;;6.93;4.50;;;;;;;;;;5082528;27;87624;-58
2023/07/31 01:04:38;;;;;;;7.73;4.53;;;;;;;;;;5082372;27;89645;-58
2023/07/31 01:07:09;;;;;;;8.23;4.93;;;;;;;;;;5081961;27;89237;-59
2023/07/31 01:09:38;;;;;;;6.23;3.97;;;;;;;;;;5082348;27;89858;-58
2023/07/31 01:12:08;;;;;;;7.20;4.13;;;;;;;;;;5082426;27;87631;-58
2023/07/31 01:14:37;;;;;;;8.87;5.00;;;;;;;;;;5082032;27;89738;-58
2023/07/31 01:17:05;;;;;;;8.03;3.90;;;;;;;;;;5081832;27;89126;-58
2023/07/31 01:19:35;;;;;;;9.80;4.47;;;;;;;;;;5081957;27;88485;-58
2023/07/31 01:22:18;;;;;;;5.87;4.13;;;;;;;;;;5081858;27;87672;-58
2023/07/31 01:24:51;;;;;;;6.80;3.87;;;;;;;;;;5081811;27;89675;-58
2023/07/31 01:27:23;;;;;;;5.63;3.67;;;;;;;;;;5081490;27;89130;-58
2023/07/31 01:29:54;;;;;;;6.23;3.27;;;;;;;;;;5081597;27;88867;-58
2023/07/31 01:32:22;;;;;;;5.17;2.90;;;;;;;;;;5082071;27;87596;-58
2023/07/31 01:34:51;;;;;;;4.83;2.67;;;;;;;;;;5081812;27;89433;-58
2023/07/31 01:37:20;;;;;;;5.23;2.93;;;;;;;;;;5081753;27;89025;-58
2023/07/31 01:39:49;;;;;;;6.20;3.10;;;;;;;;;;5081876;27;88910;-58
2023/07/31 01:42:17;;;;;;;3.60;2.40;;;;;;;;;;5080894;27;87609;-58
2023/07/31 01:44:47;;;;;;;3.17;2.20;;;;;;;;;;5081677;27;90092;-60
2023/07/31 01:47:16;;;;;;;4.90;2.70;;;;;;;;;;5081089;27;90040;-58
2023/07/31 01:49:44;;;;;;;6.67;3.63;;;;;;;;;;5081773;27;90192;-58
2023/07/31 01:52:13;;;;;;;18.20;4.57;;;;;;;;;;5081675;27;87394;-58
2023/07/31 01:54:41;;;;;;;5.80;3.07;;;;;;;;;;5080611;27;89635;-58
2023/07/31 01:57:10;;;;;;;6.77;3.63;;;;;;;;;;5081259;27;88822;-58
2023/07/31 01:59:38;;;;;;;5.10;3.17;;;;;;;;;;5081380;27;88453;-58
2023/07/31 02:02:09;;;;;;;5.43;3.00;;;;;;;;;;5081669;27;87394;-58
2023/07/31 02:04:39;;;;;;;5.80;3.13;;;;;;;;;;5081589;27;90209;-58
2023/07/31 02:07:08;;;;;;;4.73;3.00;;;;;;;;;;5081284;27;89258;-58
2023/07/31 02:09:36;;;;;;;7.13;3.63;;;;;;;;;;5081281;27;89476;-58
2023/07/31 02:12:05;;;;;;;3.57;2.90;;;;;;;;;;5080784;27;87851;-58
2023/07/31 02:14:34;;;;;;;4.47;2.67;;;;;;;;;;5081262;27;89683;-58
2023/07/31 02:17:02;;;;;;;5.50;3.50;;;;;;;;;;5081167;27;89073;-58
2023/07/31 02:19:32;;;;;;;5.37;3.37;;;26.60;50.80;;;;;;5081294;27;88745;-58
2023/07/31 02:22:00;;;;;;;9.10;4.17;;;26.70;51.50;;;;;;5081212;27;87391;-58
2023/07/31 02:24:29;;;;;;;6.47;3.60;;;26.70;51.50;;;;;;5080968;27;89784;-58
2023/07/31 02:26:57;;;;;;;6.83;3.20;;;26.60;51.40;;;;;;5080799;27;89131;-58
2023/07/31 02:29:25;;;;;;;8.60;3.50;;;26.60;51.50;;;;;;5081287;27;88810;-58
2023/07/31 02:31:53;;;;;;;8.53;3.93;;;26.60;51.50;;;;;;5081178;27;87539;-58
2023/07/31 02:34:22;;;;;;;5.37;3.57;;;26.60;51.50;;;;;;5076206;27;89676;-58
2023/07/31 02:36:54;;;;;;;4.03;2.87;;;26.60;51.50;;;;;;5077181;27;90037;-58
2023/07/31 02:39:23;;;;;;;4.73;3.03;;;26.60;51.50;;;;;;5077912;27;89643;-58
2023/07/31 02:41:51;;;;;;;6.40;3.50;;;26.60;51.50;;;;;;5077964;27;87541;-58
2023/07/31 02:44:29;;;;;;;5.60;3.53;;;26.60;51.50;;;;;;5076377;27;89700;-58
2023/07/31 02:46:57;;;;;;;7.07;3.43;;;26.60;51.50;;;;;;5077365;27;89404;-59
2023/07/31 02:49:29;;;;;;;5.23;2.60;;;26.60;51.50;;;;;;5077639;27;89013;-59
2023/07/31 02:51:58;;;;;;;6.50;3.30;;;26.60;51.50;;;;;;5077803;27;88023;-58
2023/07/31 02:54:28;;;;;;;3.93;3.03;;;26.50;51.50;;;;;;5077660;27;89434;-58
2023/07/31 02:56:57;;;;;;;4.50;3.00;;;26.50;51.50;;;;;;5077356;27;88944;-58
2023/07/31 02:59:26;;;;;;;6.03;3.40;;;26.50;51.50;;;;;;5077347;27;88851;-58
2023/07/31 03:01:54;;;;;;;6.53;3.37;;;26.50;51.50;;;;;;5077154;27;87929;-58
2023/07/31 03:04:23;;;;;;;7.00;3.03;;;26.50;51.50;;;;;;5076916;27;88814;-59
2023/07/31 03:06:51;;;;;;;6.00;2.47;;;26.50;51.50;;;;;;5061874;27;89324;-58
2023/07/31 03:09:21;;;;;;;5.23;2.93;;;26.50;51.50;;;;;;5059922;27;88964;-58
2023/07/31 03:11:55;;;;;;;4.00;1.53;;;26.50;51.50;;;;;;5060236;27;88068;-59
2023/07/31 03:14:26;;;;;;;2.80;1.80;;;26.50;51.50;;;;;;5060292;27;89678;-58
2023/07/31 03:16:55;;;;;;;3.23;2.07;;;26.50;51.50;;;;;;5060785;27;88528;-58
2023/07/31 03:19:24;;;;;;;3.07;1.73;;;26.50;51.50;;;;;;5060054;27;87755;-58
2023/07/31 03:21:52;;;;;;;2.43;1.83;;;26.50;51.50;;;;;;5060274;27;88314;-58
2023/07/31 03:24:22;;;;;;;2.97;1.83;;;26.50;51.40;;;;;;5059531;27;89624;-58
2023/07/31 03:26:53;;;;;;;2.23;1.70;;;26.50;51.40;;;;;;5059753;27;90104;-58
2023/07/31 03:29:21;;;;;;;4.73;2.10;;;26.60;51.50;;;;;;5060259;27;89865;-58
2023/07/31 03:31:51;;;;;;;3.10;1.87;;;26.50;51.40;;;;;;5060333;27;87673;-58
2023/07/31 03:34:20;;;;;;;4.40;1.90;;;26.50;51.40;;;;;;5060105;27;89621;-58
2023/07/31 03:36:48;;;;;;;5.10;1.50;;;26.50;51.40;;;;;;5060393;27;89401;-58
2023/07/31 03:39:21;;;;;;;2.83;1.67;;;26.50;51.40;;;;;;5060060;27;88791;-58
2023/07/31 03:41:49;;;;;;;4.87;2.13;;;26.50;51.40;;;;;;5060199;27;87674;-58
2023/07/31 03:44:20;;;;;;;3.97;1.87;;;26.50;51.40;;;;;;5059353;27;89659;-59
2023/07/31 03:46:49;;;;;;;3.07;1.50;;;26.50;51.40;;;;;;5060560;27;87443;-58
2023/07/31 03:49:20;;;;;;;2.40;1.53;;;26.50;51.40;;;;;;5059385;27;87861;-59
2023/07/31 03:51:49;;;;;;;4.60;1.60;;;26.50;51.40;;;;;;5059708;27;88054;-58
2023/07/31 03:54:21;;;;;;;2.63;1.50;;;26.50;51.40;;;;;;5059703;27;89740;-58
2023/07/31 03:56:50;;;;;;;5.93;1.73;;;26.50;51.40;;;;;;5059640;27;89408;-59
2023/07/31 03:59:18;;;;;;;3.10;1.63;;;26.50;51.40;;;;;;5059927;27;87777;-58
2023/07/31 04:01:47;;;;;;;4.40;2.10;;;26.50;51.40;;;;;;5059911;27;87681;-59
2023/07/31 04:04:17;;;;;;;3.27;1.70;;;26.40;51.30;;;;;;5059629;27;89730;-59
2023/07/31 04:06:45;;;;;;;4.83;1.73;;;26.40;51.40;;;;;;5069879;27;89073;-59
2023/07/31 04:09:15;;;;;;;3.10;1.77;;;26.40;51.30;;;;;;5080532;27;88721;-58
2023/07/31 04:11:43;;;;;;;2.90;2.03;;;26.40;51.40;;;;;;5083207;27;87392;-58
2023/07/31 04:14:12;;;;;;;3.43;2.20;;;26.40;51.40;;;;;;5082668;27;89610;-58
2023/07/31 04:16:40;;;;;;;3.40;1.70;;;26.40;51.40;;;;;;5081903;27;89718;-58
2023/07/31 04:19:10;;;;;;;4.20;1.50;;;26.40;51.40;;;;;;5082759;27;89955;-59
2023/07/31 04:21:38;;;;;;;2.23;1.50;;;26.40;51.40;;;;;;5082954;27;87642;-58
2023/07/31 04:24:06;;;;;;;1.93;1.30;;;26.40;51.40;;;;;;5082698;27;89381;-58
2023/07/31 04:26:35;;;;;;;3.63;1.67;;;26.40;51.40;;;;;;5082715;27;88794;-58
2023/07/31 04:29:03;;;;;;;2.93;1.53;;;26.40;51.40;;;;;;5083000;27;87491;-58
2023/07/31 04:31:33;;;;;;;4.00;1.53;;;26.40;52.10;;;;;;5082953;27;87640;-59
2023/07/31 04:34:03;;;;;;;1.97;1.50;;;26.40;51.40;;;;;;5082696;27;89645;-58
2023/07/31 04:36:31;;;;;;;2.87;1.40;;;26.40;51.40;;;;;;5082519;27;89313;-58
2023/07/31 04:38:59;;;;;;;3.17;1.50;;;26.40;51.40;;;;;;5082487;27;88784;-58
2023/07/31 04:41:28;;;;;;;3.10;1.60;;;26.40;52.10;;;;;;5081783;27;87843;-58
2023/07/31 04:43:56;;;;;;;2.77;1.60;;;26.40;51.40;;;;;;5081679;27;89710;-58
2023/07/31 04:46:24;;;;;;;2.57;1.50;;;26.40;51.40;;;;;;5082423;27;89075;-58
2023/07/31 04:48:54;;;;;;;2.47;1.47;;;26.30;51.40;;;;;;5082217;27;88641;-58
2023/07/31 04:51:23;;;;;;;2.80;1.50;;;26.30;51.40;;;;;;5082177;27;87392;-58
2023/07/31 04:53:51;;;;;;;1.87;1.40;;;26.30;51.40;;;;;;5082174;27;89705;-58
2023/07/31 04:56:19;;;;;;;3.00;1.30;;;26.30;51.40;;;;;;5082454;27;88974;-58
2023/07/31 04:58:47;;;;;;;3.53;1.27;;;26.30;51.40;;;;;;5082467;27;88662;-58
2023/07/31 05:01:16;;;;;;;1.87;1.10;;;26.40;51.40;;;;;;5082531;27;87664;-58
2023/07/31 05:03:44;;;;;;;2.57;1.17;;;26.40;51.40;;;;;;5082176;27;89594;-58
2023/07/31 05:06:15;;;;;;;3.50;1.40;;;26.30;51.40;;;;;;5081466;27;90224;-59
2023/07/31 05:08:43;;;;;;;3.30;1.20;;;26.30;51.40;;;;;;5081908;27;89797;-58
2023/07/31 05:11:11;;;;;;;1.40;1.10;;;26.30;51.40;;;;;;5082464;27;87412;-58
2023/07/31 05:13:39;;;;;;;1.13;1.00;;;26.30;51.40;;;;;;5081916;27;89616;-58
2023/07/31 05:16:08;;;;;;;3.67;1.30;;;26.30;51.40;;;;;;5082006;27;89093;-58
2023/07/31 05:18:36;;;;;;;1.53;0.90;;;26.30;51.40;;;;;;5081884;27;88777;-58
2023/07/31 05:21:04;;;;;;;3.27;1.10;;;26.40;51.40;;;;;;5081833;27;88362;-58
2023/07/31 05:23:34;;;;;;;1.90;1.10;;;26.30;51.40;;;;;;5082114;27;89470;-58
2023/07/31 05:26:05;;;;;;;1.17;1.00;;;26.30;51.40;;;;;;5081662;27;89069;-58
2023/07/31 05:28:35;;;;;;;3.07;1.10;;;26.30;51.40;;;;;;5081101;27;88523;-58
2023/07/31 05:31:03;;;;;;;1.50;1.00;;;26.30;51.40;;;;;;5081311;27;87839;-58
2023/07/31 05:33:31;;;;;;;2.43;1.20;;;26.30;51.40;;;;;;5081348;27;89641;-58
2023/07/31 05:36:00;;;;;;;3.73;1.20;;;26.30;51.40;;;;;;5082504;27;89211;-58
2023/07/31 05:38:28;;;;;;;1.07;0.77;;;26.30;51.40;;;;;;5082414;27;88838;-59
2023/07/31 05:40:58;;;;;;;2.73;1.50;;;26.30;51.40;;;;;;5082639;27;87274;-59
2023/07/31 05:43:26;;;;;;;1.87;1.33;;;26.30;51.40;;;;;;5080635;27;89350;-58
2023/07/31 05:45:54;;;;;;;1.60;0.80;;;26.30;51.40;;;;;;5081234;27;89181;-58
2023/07/31 05:48:22;;;;;;;2.17;1.20;;;26.30;51.40;;;;;;5081438;27;88845;-58
2023/07/31 05:50:51;;;;;;;1.03;0.83;;;26.30;51.40;;;;;;5081536;27;87589;-58
2023/07/31 05:53:19;;;;;;;3.00;1.53;;;26.30;51.40;;;;;;5081316;27;89494;-58
2023/07/31 05:55:47;;;;;;;2.00;0.83;;;26.30;51.40;;;;;;5080867;27;90025;-59
2023/07/31 05:58:16;;;;;;;1.93;1.10;;;26.30;51.40;;;;;;5081390;27;89886;-58
2023/07/31 06:00:45;;;;;;;1.20;0.90;;;26.30;51.40;;;;;;5081473;27;87625;-58
2023/07/31 06:03:13;;;;;;;2.63;0.70;;;26.30;51.40;;;;;;5080863;27;89722;-58
2023/07/31 06:05:41;;;;;;;2.43;1.30;;;26.30;51.40;;;;;;5081162;27;89181;-58
2023/07/31 06:08:09;;;;;;;5.47;1.27;;;26.30;51.40;;;;;;5081249;27;88798;-58
2023/07/31 06:10:38;;;;;;;1.73;1.00;;;26.30;51.40;;;;;;5081235;27;87649;-58
2023/07/31 06:13:06;;;;;;;5.07;0.80;;;26.20;51.30;;;;;;5081158;27;89860;-58
2023/07/31 06:15:36;;;;;;;2.13;0.97;;;26.30;51.40;;;;;;5081040;27;89127;-58
2023/07/31 06:18:07;;;;;;;1.37;1.27;;;26.30;51.40;;;;;;5080808;27;87692;-58
2023/07/31 06:20:35;;;;;;;3.60;1.03;;;26.30;51.40;;;;;;5080603;27;87903;-58
2023/07/31 06:23:04;;;;;;;1.03;0.90;;;26.30;51.40;;;;;;5081066;27;89303;-58
2023/07/31 06:25:32;;;;;;;2.13;1.40;;;26.20;51.40;;;;;;5080988;27;88968;-58
2023/07/31 06:28:00;;;;;;;1.73;0.90;;;26.20;51.40;;;;;;5080906;27;88739;-58
2023/07/31 06:30:29;;;;;;;3.17;1.20;;;26.20;51.40;;;;;;5080969;27;87667;-58
2023/07/31 06:32:58;;;;;;;3.20;1.20;;;26.20;51.40;;;;;;5080679;27;89737;-58
2023/07/31 06:35:27;;;;;;;2.47;1.30;;;26.20;51.40;;;;;;5080780;27;89186;-58
2023/07/31 06:37:55;;;;;;;1.70;0.80;;;26.20;51.40;;;;;;5081076;27;88775;-58
2023/07/31 06:40:23;;;;;;;1.10;0.80;;;26.20;52.00;;;;;;5082950;27;87635;-58
2023/07/31 06:42:51;;;;;;;2.17;0.97;;;26.20;51.40;;;;;;5083517;27;89997;-58
2023/07/31 06:45:20;;;;;;;2.07;1.20;;;26.20;51.40;;;;;;5083999;27;88775;-58
2023/07/31 06:47:48;;;;;;;1.67;0.90;;;26.20;51.40;;;;;;5084013;27;89691;-59
2023/07/31 06:50:18;;;;;;;2.60;0.97;;;26.20;51.40;;;;;;5084489;27;87738;-58
2023/07/31 06:52:46;;;;;;;2.70;0.67;;;26.20;51.40;;;;;;5083878;27;89627;-58
2023/07/31 06:55:18;;;;;;;1.83;1.13;;;26.20;51.40;;;;;;5084030;27;89042;-58
2023/07/31 06:57:47;;;;;;;1.60;1.20;;;26.20;51.40;;;;;;5084004;27;88400;-58
2023/07/31 07:00:15;;;;;;;2.37;1.43;;;26.20;51.40;;;;;;5084451;27;87621;-58
2023/07/31 07:02:43;;;;;;;1.53;1.10;;;26.20;51.40;;;;;;5083912;27;89630;-58
2023/07/31 07:05:12;;;;;;;1.40;0.80;;;26.20;51.40;;;;;;5083774;27;89174;-58
2023/07/31 07:07:42;;;;;;;1.43;0.93;;;26.20;51.40;;;;;;5084158;27;88973;-59
2023/07/31 07:10:10;;;;;;;1.57;0.83;;;26.20;51.40;;;;;;5083794;27;88103;-58
2023/07/31 07:12:38;;;;;;;1.00;0.90;;;26.20;51.40;;;;;;5083890;27;89781;-58
2023/07/31 07:15:07;;;;;;;1.30;0.90;;;26.20;51.40;;;;;;5083355;27;89346;-58
2023/07/31 07:17:35;;;;;;;1.10;0.87;;;26.20;51.40;;;;;;5083932;27;88801;-58
2023/07/31 07:20:04;;;;;;;1.73;0.97;;;26.20;51.40;;;;;;5083931;27;87966;-58
2023/07/31 07:22:33;;;;;;;2.00;0.70;;;26.20;51.40;;;;;;5083783;27;89648;-58
2023/07/31 07:25:02;;;;;;;1.80;1.10;;;26.20;51.40;;;;;;5083512;27;89267;-58
2023/07/31 07:27:31;;;;;;;2.60;1.03;;;26.20;51.50;;;;;;5083751;27;89196;-58
2023/07/31 07:29:59;;;;;;;2.73;1.40;;;26.20;51.40;;;;;;5083649;27;87310;-59
2023/07/31 07:32:27;;;;;;;1.17;0.97;;;26.20;51.40;;;;;;5083692;27;89677;-58
2023/07/31 07:34:56;;;;;;;0.93;0.80;;;26.20;51.40;;;;;;5083613;27;89027;-59
2023/07/31 07:37:24;;;;;;;1.10;1.00;;;26.20;51.40;;;;;;5083654;27;88444;-58
2023/07/31 07:39:52;;;;;;;1.57;0.97;;;26.30;51.50;;;;;;5083864;27;87391;-58
2023/07/31 07:42:21;;;;;;;0.83;0.83;;;26.20;51.40;;;;;;5082671;27;90194;-59
2023/07/31 07:44:50;;;;;;;2.47;1.00;;;26.20;51.40;;;;;;5082469;27;89073;-58
2023/07/31 07:47:18;;;;;;;1.70;1.17;;;26.30;51.40;;;;;;5083274;27;89058;-58
2023/07/31 07:49:46;;;;;;;1.57;0.97;;;26.20;51.40;;;;;;5083719;27;87618;-58
2023/07/31 07:52:20;;;;;;;1.57;1.07;;;26.20;51.40;;;;;;5083073;27;88372;-58
2023/07/31 07:54:48;;;;;;;1.60;1.07;;;26.20;51.40;;;;;;5082874;27;88982;-58
2023/07/31 07:57:16;;;;;;;3.43;0.93;;;26.30;51.40;;;;;;5083271;27;87353;-58
2023/07/31 07:59:46;;;;;;;1.43;1.20;;;26.20;51.40;;;;;;5082944;27;87886;-58
2023/07/31 08:02:14;;;;;;;1.30;0.90;;;26.20;51.40;;;;;;5082846;27;89691;-58
2023/07/31 08:04:42;;;;;;;1.10;1.00;;;26.20;51.40;;;;;;5082787;27;89155;-58
2023/07/31 08:07:12;;;;;;;1.87;1.00;;;26.20;51.40;;;;;;5083164;27;88849;-58
2023/07/31 08:09:40;;;;;;;2.37;1.17;;;26.20;51.40;;;;;;5083031;27;87657;-58
2023/07/31 08:12:09;;;;;;;2.30;1.40;;;26.20;51.40;;;;;;5082416;27;89643;-58
2023/07/31 08:14:37;;;;;;;1.63;0.90;;;26.20;51.40;;;;;;5082681;27;87769;-58
2023/07/31 08:17:07;;;;;;;1.63;1.40;;;26.20;51.40;;;;;;5083142;27;89000;-58
2023/07/31 08:19:35;;;;;;;1.83;1.00;;;26.20;51.50;;;;;;5083030;27;87671;-58
2023/07/31 08:22:04;;;;;;;1.03;0.93;;;26.20;51.40;;;;;;5082622;27;89837;-58
2023/07/31 08:24:32;;;;;;;1.27;1.17;;;26.20;51.50;;;;;;5082388;27;88162;-58
2023/07/31 08:27:00;;;;;;;2.60;1.60;;;26.20;51.50;;;;;;5082842;27;89693;-58
2023/07/31 08:29:29;;;;;;;2.07;1.37;;;26.20;51.40;;;;;;5082797;27;87674;-58
2023/07/31 08:31:57;;;;;;;1.27;1.00;;;26.20;51.40;;;;;;5082384;27;89770;-59
2023/07/31 08:34:27;;;;;;;0.90;0.90;;;26.20;51.40;;;;;;5082884;27;89239;-58
2023/07/31 08:36:55;;;;;;;0.97;0.73;;;26.20;51.40;;;;;;5082516;27;88655;-58
2023/07/31 08:39:23;;;;;;;2.23;1.50;;;26.20;51.40;;;;;;5082993;27;87587;-59
2023/07/31 08:41:51;;;;;;;4.57;1.40;;;26.20;51.40;;;;;;5082564;27;89356;-58
2023/07/31 08:44:20;;;;;;;1.83;0.97;;;26.10;51.40;;;;;;5080989;27;89158;-58
2023/07/31 08:46:48;;;;;;;1.33;1.13;;;26.20;51.40;;;;;;5082550;27;88797;-58
2023/07/31 08:49:16;;;;;;;1.13;1.00;;;26.20;51.40;;;;;;5082217;27;87813;-58
2023/07/31 08:51:46;;;;;;;1.17;1.07;;;26.20;51.40;;;;;;5082073;27;89341;-58
2023/07/31 08:54:14;;;;;;;1.77;1.43;;;26.20;51.40;;;;;;5082324;27;89089;-58
2023/07/31 08:56:43;;;;;;;0.83;0.83;;;26.20;51.50;;;;;;5081693;27;88896;-58
2023/07/31 08:59:11;;;;;;;1.00;0.90;;;26.20;51.50;;;;;;5082412;27;87652;-58
2023/07/31 09:01:42;;;;;;;1.37;1.20;;;26.20;51.50;;;;;;5082067;27;89615;-58
2023/07/31 09:04:10;;;;;;;1.70;0.90;;;26.20;51.50;;;;;;5081121;27;87974;-58
2023/07/31 09:06:39;;;;;;;1.23;1.03;;;26.20;51.50;;;;;;5082131;27;90952;-60
2023/07/31 09:09:10;;;;;;;1.80;1.23;;;26.20;51.50;;;;;;5082353;27;87263;-58
2023/07/31 09:11:38;;;;;;;2.00;1.20;;;25.90;51.30;;;;;;5081608;27;89229;-58
2023/07/31 09:14:08;;;;;;;1.90;1.17;;;26.20;51.50;;;;;;5081409;27;90289;-58
2023/07/31 09:16:37;;;;;;;2.30;1.40;;;26.20;51.50;;;;;;5081836;27;89797;-59
2023/07/31 09:19:05;;;;;;;1.23;1.07;;;26.20;51.50;;;;;;5082183;27;87621;-58
2023/07/31 09:21:33;;;;;;;1.73;1.30;;;26.20;51.50;;;;;;5081680;27;89830;-58
2023/07/31 09:24:02;;;;;;;1.87;1.13;;;26.20;51.50;;;;;;5081735;27;89164;-58
2023/07/31 09:26:32;;;;;;;1.30;1.00;;;26.20;51.50;;;;;;5081490;27;88842;-58
2023/07/31 09:29:01;;;;;;;1.40;1.20;;;26.20;51.50;;;;;;5081906;27;87621;-58
2023/07/31 09:31:40;;;;;;;1.83;1.13;;;26.20;51.50;;;;;;5081947;27;89692;-58
2023/07/31 09:34:08;;;;;;;2.20;1.27;;;26.20;51.50;;;;;;5081791;27;89241;-58
2023/07/31 09:36:41;;;;;;;3.37;0.97;;;26.20;51.50;;;;;;5081681;27;88826;-58
2023/07/31 09:39:10;;;;;;;1.53;1.43;;;26.20;51.50;;;;;;5081602;27;87889;-58
2023/07/31 09:41:41;;;;;;;1.17;1.07;;;26.20;51.50;;;;;;5081312;27;89675;-58
2023/07/31 09:44:09;;;;;;;2.37;1.33;;;26.20;51.50;;;;;;5079699;27;89397;-58
2023/07/31 09:46:38;;;;;;;1.53;0.90;;;26.20;51.50;;;;;;5081502;27;88894;-58
2023/07/31 09:49:10;;;;;;;1.47;1.07;;;26.20;51.50;;;;;;5081763;27;87644;-58
2023/07/31 09:51:39;;;;;;;1.57;1.17;;;26.10;51.50;;;;;;5081837;27;87320;-58
2023/07/31 09:54:12;;;;;;;1.60;0.93;;;26.20;51.50;;;;;;5081384;27;89117;-58
2023/07/31 09:56:44;;;;;;;2.07;1.20;;;26.10;51.50;;;;;;5081236;27;88920;-58
2023/07/31 09:59:14;;;;;;;1.50;1.00;;;26.10;51.50;;;;;;5081496;27;87543;-58
2023/07/31 10:01:42;;;;;;;1.03;0.70;;;26.10;51.50;;;;;;5081127;27;89652;-58
2023/07/31 10:04:11;;;;;;;1.23;1.03;;;26.10;51.50;;;;;;5080615;27;90160;-58
2023/07/31 10:06:39;;;;;;;1.20;1.10;;;26.10;51.50;;;;;;5081075;27;89693;-58
2023/07/31 10:09:10;;;;;;;2.20;1.27;;;26.10;51.50;;;;;;5081288;27;87632;-58
2023/07/31 10:11:40;;;;;;;1.10;0.93;;;26.10;51.50;;;;;;5081177;27;89690;-58
2023/07/31 10:14:09;;;;;;;1.10;1.00;;;26.10;51.50;;;;;;5081017;27;89109;-58
2023/07/31 10:16:39;;;;;;;1.37;1.10;;;26.10;51.50;;;;;;5084580;27;88776;-58
2023/07/31 10:19:08;;;;;;;1.90;1.10;;;26.10;51.50;;;;;;5084829;27;87661;-58
2023/07/31 10:21:37;;;;;;;2.63;1.37;;;26.10;51.50;;;;;;5085323;27;90119;-58
2023/07/31 10:24:06;;;;;;;1.40;0.97;;;26.10;51.50;;;;;;5084268;27;89192;-58
2023/07/31 10:26:34;;;;;;;1.73;1.13;;;26.10;51.50;;;;;;5084783;27;88832;-58
2023/07/31 10:29:02;;;;;;;1.30;1.20;;;26.10;51.50;;;;;;5084393;27;87771;-58
2023/07/31 10:31:32;;;;;;;1.80;1.20;;;26.10;51.50;;;;;;5084697;27;89579;-58
2023/07/31 10:34:00;;;;;;;2.47;1.20;;;26.10;51.50;;;;;;5084400;27;89144;-58
2023/07/31 10:36:28;;;;;;;1.80;0.93;;;26.10;51.50;;;;;;5084432;27;88515;-58
2023/07/31 10:38:57;;;;;;;1.27;0.90;;;26.10;51.50;;;;;;5084757;27;87638;-58
2023/07/31 10:41:31;;;;;;;1.40;1.30;;;26.10;51.50;;;;;;5084548;27;89656;-58
2023/07/31 10:44:01;;;;;;;1.57;1.00;;;26.10;51.50;;;;;;5083173;27;89117;-58
2023/07/31 10:46:29;;;;;;;1.70;1.07;;;26.10;51.60;;;;;;5084549;27;88787;-58
2023/07/31 10:49:02;;;;;;;1.77;1.10;;;26.10;51.50;;;;;;5084445;27;87255;-58
2023/07/31 10:51:34;;;;;;;1.33;1.23;;;26.10;51.50;;;;;;5084705;27;90789;-58
2023/07/31 10:54:12;;;;;;;2.47;1.10;;;26.10;51.50;;;;;;5083566;27;90047;-58
2023/07/31 10:56:40;;;;;;;1.50;1.07;;;26.10;51.60;;;;;;5085319;27;89949;-61
2023/07/31 10:59:12;;;;;;;1.57;1.20;;;26.10;51.50;;;;;;5088290;27;87658;-58
2023/07/31 11:01:53;;;;;;;2.33;1.20;;;26.10;51.50;;;;;;5083829;27;89916;-58
2023/07/31 11:04:26;;;;;;;1.47;1.37;;;26.20;51.60;;;;;;5083690;27;89365;-59
2023/07/31 11:06:58;;;;;;;2.30;1.97;;;26.20;51.70;;;;;;5083831;27;89127;-56
2023/07/31 11:09:29;;;;;;;2.07;1.87;;;26.30;51.90;;;;;;5083790;27;87601;-57
2023/07/31 11:11:57;;;;;;;2.03;1.67;;;26.40;52.10;;;;;;5084116;27;89487;-57
2023/07/31 11:14:26;;;;;;;1.20;1.10;;;26.40;52.10;;;;;;5083713;27;89117;-57
2023/07/31 11:16:54;;;;;;;3.87;1.20;;;26.50;52.20;;;;;;5084200;27;88776;-57
2023/07/31 11:19:23;;;;;;;2.20;0.80;;;26.50;52.40;;;;;;5083699;27;87749;-57
2023/07/31 11:21:53;;;;;;;0.87;0.87;;;26.60;52.50;;;;;;5084413;27;88457;-57
2023/07/31 11:24:22;;;;;;;1.97;1.30;;;26.60;52.60;;;;;;5083827;27;89118;-57
2023/07/31 11:26:51;;;;;;;1.33;1.23;;;26.60;52.80;;;;;;5082456;27;88799;-57
2023/07/31 11:29:19;;;;;;;2.67;1.63;;;26.70;53.00;;;;;;5083579;27;87610;-57
2023/07/31 11:31:49;;;;;;;1.33;1.23;;;26.80;53.30;;;;;;5083545;27;89770;-57
2023/07/31 11:34:20;;;;;;;5.13;1.77;;;26.80;53.40;;;;;;5083152;27;89258;-58
2023/07/31 11:36:55;;;;;;;1.40;1.27;;;26.80;53.50;;;;;;5083403;27;88804;-57
2023/07/31 11:39:24;;;;;;;2.70;1.40;;;26.80;53.60;;;;;;5083797;27;87475;-57
2023/07/31 11:41:52;;;;;;;1.20;1.10;;;26.80;53.60;;;;;;5083482;27;89593;-57
2023/07/31 11:44:20;;;;;;;2.33;1.17;;;26.80;53.70;;;;;;5063299;27;91271;-57
2023/07/31 11:46:57;;;;;;;1.23;1.00;;;26.80;53.80;;;;;;5075094;27;89762;-57
2023/07/31 11:49:26;;;;;;;1.63;1.20;;;26.70;53.70;;;;;;5082494;27;87419;-57
2023/07/31 11:51:56;;;;;;;4.60;1.20;;;26.70;53.80;;;;;;5081205;27;90056;-57
2023/07/31 11:54:24;;;;;;;1.43;1.07;;;26.70;53.80;;;;;;5082312;27;88077;-57
2023/07/31 11:56:53;;;;;;;1.20;1.10;;;26.70;53.90;;;;;;5082355;27;88829;-57
2023/07/31 11:59:21;;;;;;;1.70;0.90;;;26.70;53.90;;;;;;5082643;27;87593;-57
2023/07/31 12:01:53;;;;;;;1.73;1.17;;;26.60;53.90;;;;;;5078921;27;89884;-57
2023/07/31 12:04:22;;;;;;;4.70;1.40;;;26.60;53.90;;;;;;5081863;27;89245;-57
2023/07/31 12:06:51;;;;;;;1.40;1.03;;;26.60;53.90;;;;;;5081182;27;88966;-57
2023/07/31 12:09:21;;;;;;;2.00;1.37;;;26.60;53.90;;;;;;5076851;27;87904;-57
2023/07/31 12:11:49;;;;;;;1.60;1.00;;;26.60;53.90;;;;;;5082405;27;89576;-57
2023/07/31 12:14:24;;;;;;;2.47;1.17;;;26.60;53.90;;;;;;5082106;27;89149;-57
2023/07/31 12:16:56;;;;;;;1.60;1.07;;;26.60;54.00;;;;;;5079896;27;87658;-57
2023/07/31 12:19:27;;;;;;;2.87;1.30;;;26.60;54.00;;;;;;5059076;27;88665;-58
2023/07/31 12:21:56;;;;;;;1.53;1.00;;;26.60;54.10;;;;;;5095207;27;89917;-58
2023/07/31 12:24:26;;;;;;;2.77;1.60;;;26.50;54.00;;;;;;5081541;27;88859;-58
2023/07/31 12:26:55;;;;;;;2.73;1.63;;;26.50;54.10;;;;;;5082322;27;88830;-58
2023/07/31 12:29:23;;;;;;;2.27;1.77;;;26.50;54.10;;;;;;5082057;27;87727;-58
2023/07/31 12:31:51;;;;;;;5.63;2.10;;;26.50;54.10;;;;;;5081800;27;89577;-58
2023/07/31 12:34:20;;;;;;;3.23;1.33;;;26.50;54.10;;;;;;5080812;27;88897;-58
2023/07/31 12:36:49;;;;;;;1.23;1.00;;;26.50;54.10;;;;;;5083489;27;89840;-58
2023/07/31 12:39:17;;;;;;;2.33;1.07;;;26.50;54.20;;;;;;5078983;27;87644;-59
2023/07/31 12:41:48;;;;;;;1.80;1.40;;;26.50;54.30;;;;;;5074187;27;89623;-59
2023/07/31 12:44:16;;;;;;;2.07;1.10;;;26.50;54.30;;;;;;5080766;27;89230;-59
2023/07/31 12:46:45;;;;;;;1.20;1.10;;;26.50;54.30;;;;;;5081682;27;88817;-59
2023/07/31 12:49:13;;;;;;;2.73;1.70;;;26.50;54.40;;;;;;5074046;27;87632;-60
2023/07/31 12:51:41;;;;;;;2.20;1.50;;;26.50;54.40;;;;;;5068839;27;89737;-60
2023/07/31 12:54:09;;;;;;;1.73;1.53;;;26.50;54.30;;;;;;5066891;27;89227;-59
2023/07/31 12:56:38;;;;;;;2.73;2.00;;;26.50;54.90;;;;;;5071564;27;88554;-60
2023/07/31 12:59:08;;;;;;;2.67;1.60;;;26.50;54.20;;;;;;5077537;27;87948;-61
2023/07/31 13:01:36;;;;;;;1.90;1.70;;;26.50;54.20;;;;;;5078966;27;89938;-60
2023/07/31 13:04:05;;;;;;;3.27;1.77;;;26.60;54.20;;;;;;5081256;27;89187;-60
2023/07/31 13:06:33;;;;;;;3.47;2.33;;;26.50;54.10;;;;;;5081218;27;88750;-60
2023/07/31 13:09:01;;;;;;;1.67;1.57;;;26.60;54.10;;;;;;5081607;27;87477;-60
2023/07/31 13:11:29;;;;;;;2.27;1.67;;;26.60;54.00;;;;;;5081474;27;89576;-60
2023/07/31 13:13:58;;;;;;;4.03;2.17;;;26.60;54.00;;;;;;5082354;27;89115;-60